createdAt,value
2022-10-03T00:04:06.221Z,10.66
2022-10-03T00:09:28.538Z,10.58
2022-10-03T00:14:21.472Z,10.46
2022-10-03T00:19:21.384Z,10.36
2022-10-03T00:24:21.328Z,10.29
2022-10-03T00:29:21.242Z,10.25
2022-10-03T00:34:21.177Z,10.21
2022-10-03T00:39:21.113Z,10.18
2022-10-03T00:44:21.054Z,10.15
2022-10-03T00:49:20.997Z,10.12
2022-10-03T00:54:20.914Z,10.09
2022-10-03T00:59:20.867Z,10.05
2022-10-03T01:04:20.776Z,10.01
2022-10-03T01:09:20.715Z,9.97
2022-10-03T01:14:20.644Z,9.93
2022-10-03T01:19:20.611Z,9.89
2022-10-03T01:24:20.510Z,9.85
2022-10-03T01:29:20.438Z,9.81
2022-10-03T01:34:20.372Z,9.78
2022-10-03T01:39:20.337Z,9.74
2022-10-03T01:44:20.248Z,9.72
2022-10-03T01:49:20.169Z,9.69
2022-10-03T01:54:20.129Z,9.68
2022-10-03T01:59:20.107Z,9.68
2022-10-03T02:04:19.984Z,9.67
2022-10-03T02:09:19.919Z,9.67
2022-10-03T02:14:19.837Z,9.68
2022-10-03T02:19:19.782Z,9.69
2022-10-03T02:24:19.716Z,9.71
2022-10-03T02:29:19.636Z,9.72
2022-10-03T02:34:19.571Z,9.72
2022-10-03T02:39:19.530Z,9.71
2022-10-03T02:44:19.430Z,9.70
2022-10-03T02:49:19.375Z,9.68
2022-10-03T02:54:19.325Z,9.66
2022-10-03T02:59:19.244Z,9.64
2022-10-03T03:04:19.174Z,9.61
2022-10-03T03:09:19.143Z,9.58
2022-10-03T03:14:19.029Z,9.54
2022-10-03T03:19:18.964Z,9.49
2022-10-03T03:24:18.945Z,9.44
2022-10-03T03:29:18.853Z,9.40
2022-10-03T03:34:18.806Z,9.38
2022-10-03T03:39:18.718Z,9.39
2022-10-03T03:44:18.647Z,9.40
2022-10-03T03:49:18.570Z,9.43
2022-10-03T03:54:18.500Z,9.46
2022-10-03T03:59:18.438Z,9.50
2022-10-03T04:04:19.062Z,9.55
2022-10-03T04:09:18.321Z,9.61
2022-10-03T04:14:18.245Z,9.67
2022-10-03T04:19:33.700Z,9.71
2022-10-03T04:24:26.097Z,9.72
2022-10-03T04:29:26.144Z,9.72
2022-10-03T04:34:25.944Z,9.74
2022-10-03T04:39:25.903Z,9.76
2022-10-03T04:44:25.829Z,9.77
2022-10-03T04:49:25.790Z,9.75
2022-10-03T04:54:25.701Z,9.71
2022-10-03T04:59:25.647Z,9.69
2022-10-03T05:04:25.571Z,9.71
2022-10-03T05:09:25.523Z,9.75
2022-10-03T05:14:25.457Z,9.81
2022-10-03T05:19:25.381Z,9.88
2022-10-03T05:24:25.303Z,9.95
2022-10-03T05:29:25.261Z,10.02
2022-10-03T05:34:25.178Z,10.09
2022-10-03T05:39:25.083Z,10.16
2022-10-03T05:44:25.067Z,10.22
2022-10-03T05:49:24.978Z,10.28
2022-10-03T05:54:24.909Z,10.35
2022-10-03T05:59:24.826Z,10.40
2022-10-03T06:04:24.777Z,10.44
2022-10-03T06:09:24.673Z,10.48
2022-10-03T06:14:24.618Z,10.53
2022-10-03T06:19:24.580Z,10.59
2022-10-03T06:24:24.487Z,10.64
2022-10-03T06:29:24.417Z,10.68
2022-10-03T06:34:24.390Z,10.72
2022-10-03T06:39:24.359Z,10.78
2022-10-03T06:44:24.193Z,10.84
2022-10-03T06:49:24.146Z,10.92
2022-10-03T06:54:24.073Z,11.03
2022-10-03T06:59:24.013Z,11.15
2022-10-03T07:04:23.969Z,11.32
2022-10-03T07:09:23.901Z,11.47
2022-10-03T07:14:23.839Z,11.58
2022-10-03T07:19:23.747Z,11.70
2022-10-03T07:24:23.678Z,11.83
2022-10-03T07:29:23.618Z,11.95
2022-10-03T07:34:23.673Z,12.04
2022-10-03T07:39:23.454Z,12.15
2022-10-03T07:44:23.415Z,12.37
2022-10-03T07:49:23.355Z,12.75
2022-10-03T07:54:23.275Z,13.19
2022-10-03T07:59:23.207Z,13.59
2022-10-03T08:04:23.147Z,13.93
2022-10-03T08:09:23.111Z,14.18
2022-10-03T08:14:23.007Z,14.29
2022-10-03T08:19:22.917Z,14.29
2022-10-03T08:24:22.859Z,14.32
2022-10-03T08:29:22.835Z,14.41
2022-10-03T08:34:22.745Z,14.56
2022-10-03T08:39:22.686Z,14.81
2022-10-03T08:44:25.036Z,15.18
2022-10-03T08:49:23.512Z,15.67
2022-10-03T08:54:22.440Z,16.24
2022-10-03T08:59:22.397Z,16.61
2022-10-03T09:04:22.352Z,16.68
2022-10-03T09:09:22.265Z,16.63
2022-10-03T09:14:22.173Z,16.71
2022-10-03T09:19:22.141Z,17.08
2022-10-03T09:24:22.052Z,17.47
2022-10-03T09:29:21.963Z,17.67
2022-10-03T09:34:21.914Z,17.79
2022-10-03T09:39:21.932Z,18.32
2022-10-03T09:44:21.965Z,18.92
2022-10-03T09:49:21.731Z,19.63
2022-10-03T09:54:21.639Z,20.43
2022-10-03T09:59:21.579Z,21.96
2022-10-03T10:04:37.356Z,23.47
2022-10-03T10:09:22.594Z,23.79
2022-10-03T10:14:21.543Z,23.58
2022-10-03T10:19:21.368Z,23.08
2022-10-03T10:24:21.426Z,22.23
2022-10-03T10:29:21.398Z,21.49
2022-10-03T10:34:22.746Z,21.41
2022-10-03T10:39:21.185Z,21.24
2022-10-03T10:44:21.000Z,20.69
2022-10-03T10:49:20.950Z,20.11
2022-10-03T10:54:20.817Z,19.59
2022-10-03T10:59:20.773Z,19.28
2022-10-03T11:04:20.711Z,19.20
2022-10-03T11:09:20.651Z,19.17
2022-10-03T11:14:20.580Z,19.10
2022-10-03T11:19:20.482Z,19.00
2022-10-03T11:24:20.453Z,18.93
2022-10-03T11:29:21.230Z,18.92
2022-10-03T11:34:20.275Z,18.91
2022-10-03T11:39:20.256Z,18.83
2022-10-03T11:44:20.164Z,18.71
2022-10-03T11:49:20.092Z,18.69
2022-10-03T11:54:31.198Z,18.81
2022-10-03T11:59:24.810Z,19.98
2022-10-03T12:04:20.880Z,22.09
2022-10-03T12:09:19.860Z,24.23
2022-10-03T12:14:19.771Z,25.62
2022-10-03T12:19:19.701Z,25.86
2022-10-03T12:24:19.628Z,25.28
2022-10-03T12:29:19.633Z,24.53
2022-10-03T12:34:19.482Z,23.81
2022-10-03T12:39:19.495Z,23.16
2022-10-03T12:44:19.342Z,22.58
2022-10-03T12:49:19.313Z,22.27
2022-10-03T12:54:20.818Z,22.24
2022-10-03T12:59:19.155Z,22.40
2022-10-03T13:04:19.101Z,22.64
2022-10-03T13:09:19.010Z,22.82
2022-10-03T13:14:18.958Z,22.81
2022-10-03T13:19:18.911Z,22.60
2022-10-03T13:24:18.846Z,22.39
2022-10-03T13:29:18.732Z,22.17
2022-10-03T13:34:18.665Z,21.92
2022-10-03T13:39:18.602Z,21.69
2022-10-03T13:44:18.537Z,21.51
2022-10-03T13:49:18.479Z,21.21
2022-10-03T13:54:18.393Z,20.76
2022-10-03T13:59:18.349Z,20.36
2022-10-03T14:04:18.299Z,20.10
2022-10-03T14:09:18.181Z,19.90
2022-10-03T14:14:18.133Z,19.71
2022-10-03T14:19:18.112Z,19.58
2022-10-03T14:24:17.985Z,19.47
2022-10-03T14:29:17.971Z,19.32
2022-10-03T14:34:17.868Z,19.09
2022-10-03T14:39:17.807Z,18.79
2022-10-03T14:44:17.734Z,18.49
2022-10-03T14:49:47.170Z,18.24
2022-10-03T14:54:18.608Z,18.04
2022-10-03T14:59:17.543Z,17.85
2022-10-03T15:04:17.450Z,17.64
2022-10-03T15:09:17.389Z,17.44
2022-10-03T15:14:17.318Z,17.26
2022-10-03T15:19:17.241Z,17.14
2022-10-03T15:24:17.184Z,17.07
2022-10-03T15:29:17.109Z,17.02
2022-10-03T15:34:17.073Z,16.96
2022-10-03T15:39:16.972Z,16.89
2022-10-03T15:44:16.921Z,16.81
2022-10-03T15:49:16.851Z,16.74
2022-10-03T15:54:16.793Z,16.69
2022-10-03T15:59:16.765Z,16.65
2022-10-03T16:04:16.639Z,16.58
2022-10-03T16:09:16.575Z,16.46
2022-10-03T16:14:16.501Z,16.30
2022-10-03T16:19:16.600Z,16.14
2022-10-03T16:24:16.383Z,15.97
2022-10-03T16:29:16.315Z,15.80
2022-10-03T16:34:16.216Z,15.63
2022-10-03T16:39:17.733Z,15.46
2022-10-03T16:44:16.116Z,15.28
2022-10-03T16:49:16.072Z,15.09
2022-10-03T16:54:15.991Z,14.89
2022-10-03T16:59:15.924Z,14.69
2022-10-03T17:04:15.907Z,14.49
2022-10-03T17:09:15.775Z,14.31
2022-10-03T17:14:16.014Z,14.13
2022-10-03T17:19:17.083Z,13.96
2022-10-03T17:24:15.549Z,13.79
2022-10-03T17:29:15.486Z,13.61
2022-10-03T17:34:15.443Z,13.44
2022-10-03T17:39:15.400Z,13.31
2022-10-03T17:44:15.326Z,13.19
2022-10-03T17:49:15.211Z,13.09
2022-10-03T17:54:15.180Z,12.99
2022-10-03T17:59:15.115Z,12.88
2022-10-03T18:04:15.013Z,12.77
2022-10-03T18:09:14.986Z,12.67
2022-10-03T18:14:14.942Z,12.58
2022-10-03T18:19:14.830Z,12.49
2022-10-03T18:24:14.724Z,12.41
2022-10-03T18:29:14.703Z,12.34
2022-10-03T18:34:14.614Z,12.27
2022-10-03T18:39:14.544Z,12.21
2022-10-03T18:44:14.478Z,12.16
2022-10-03T18:49:32.773Z,12.11
2022-10-03T18:54:15.381Z,12.06
2022-10-03T18:59:14.254Z,12.00
2022-10-03T19:04:14.265Z,11.94
2022-10-03T19:09:14.155Z,11.89
2022-10-03T19:14:14.078Z,11.84
2022-10-03T19:19:14.017Z,11.79
2022-10-03T19:24:13.932Z,11.74
2022-10-03T19:29:13.883Z,11.69
2022-10-03T19:34:13.817Z,11.65
2022-10-03T19:39:13.752Z,11.59
2022-10-03T19:44:13.690Z,11.53
2022-10-03T19:49:13.615Z,11.45
2022-10-03T19:54:13.555Z,11.37
2022-10-03T19:59:13.675Z,11.30
2022-10-03T20:04:15.737Z,11.24
2022-10-03T20:09:13.331Z,11.19
2022-10-03T20:14:13.339Z,11.14
2022-10-03T20:19:13.243Z,11.09
2022-10-03T20:24:13.126Z,11.03
2022-10-03T20:29:13.066Z,10.96
2022-10-03T20:34:13.522Z,10.90
2022-10-03T20:39:12.917Z,10.86
2022-10-03T20:44:12.880Z,10.84
2022-10-03T20:49:12.815Z,10.84
2022-10-03T20:54:12.750Z,10.84
2022-10-03T20:59:12.655Z,10.85
2022-10-03T21:04:12.689Z,10.84
2022-10-03T21:09:12.528Z,10.82
2022-10-03T21:14:12.466Z,10.78
2022-10-03T21:19:12.389Z,10.73
2022-10-03T21:24:12.326Z,10.67
2022-10-03T21:29:12.278Z,10.61
2022-10-03T21:34:12.204Z,10.55
2022-10-03T21:39:12.100Z,10.49
2022-10-03T21:44:12.054Z,10.42
2022-10-03T21:49:11.978Z,10.35
2022-10-03T21:54:11.957Z,10.28
2022-10-03T21:59:11.922Z,10.21
2022-10-03T22:04:11.782Z,10.16
2022-10-03T22:09:11.715Z,10.11
2022-10-03T22:14:11.654Z,10.07
2022-10-03T22:19:11.567Z,10.03
2022-10-03T22:24:11.534Z,9.99
2022-10-03T22:29:11.460Z,9.95
2022-10-03T22:34:11.376Z,9.91
2022-10-03T22:39:11.412Z,9.88
2022-10-03T22:44:11.235Z,9.86
2022-10-03T22:49:11.179Z,9.83
2022-10-03T22:54:11.117Z,9.81
2022-10-03T22:59:11.059Z,9.78
2022-10-03T23:04:11.137Z,9.76
2022-10-03T23:09:10.926Z,9.72
2022-10-03T23:14:10.838Z,9.68
2022-10-03T23:19:10.790Z,9.63
2022-10-03T23:24:10.685Z,9.58
2022-10-03T23:29:10.642Z,9.52
2022-10-03T23:34:10.587Z,9.45
2022-10-03T23:39:10.507Z,9.37
2022-10-03T23:44:10.433Z,9.30
2022-10-03T23:49:10.376Z,9.24
2022-10-03T23:54:10.519Z,9.18
2022-10-03T23:59:10.242Z,9.14
